sensor_id;sensor_type;location;lat;lon;timestamp;P1;durP1;ratioP1;P2;durP2;ratioP2
28427;SDS011;15662;49.128;8.520;2024-02-21T00:00:06;9.40;;;4.25;;
28427;SDS011;15662;49.128;8.520;2024-02-21T00:02:34;9.40;;;4.63;;
28427;SDS011;15662;49.128;8.520;2024-02-21T00:05:01;11.02;;;4.75;;
28427;SDS011;15662;49.128;8.520;2024-02-21T00:07:29;10.40;;;4.63;;
28427;SDS011;15662;49.128;8.520;2024-02-21T00:09:56;10.85;;;4.18;;
28427;SDS011;15662;49.128;8.520;2024-02-21T00:12:23;9.02;;;4.22;;
28427;SDS011;15662;49.128;8.520;2024-02-21T00:14:50;7.28;;;3.88;;
28427;SDS011;15662;49.128;8.520;2024-02-21T00:17:18;8.60;;;3.85;;
28427;SDS011;15662;49.128;8.520;2024-02-21T00:19:45;8.10;;;3.92;;
28427;SDS011;15662;49.128;8.520;2024-02-21T00:22:12;10.93;;;4.18;;
28427;SDS011;15662;49.128;8.520;2024-02-21T00:24:39;11.10;;;4.38;;
28427;SDS011;15662;49.128;8.520;2024-02-21T00:27:06;8.15;;;3.80;;
28427;SDS011;15662;49.128;8.520;2024-02-21T00:29:33;10.32;;;3.38;;
28427;SDS011;15662;49.128;8.520;2024-02-21T00:32:01;9.15;;;3.50;;
28427;SDS011;15662;49.128;8.520;2024-02-21T00:34:28;7.53;;;3.58;;
28427;SDS011;15662;49.128;8.520;2024-02-21T00:36:55;10.35;;;3.75;;
28427;SDS011;15662;49.128;8.520;2024-02-21T00:39:23;9.55;;;3.85;;
28427;SDS011;15662;49.128;8.520;2024-02-21T00:41:50;8.13;;;3.63;;
28427;SDS011;15662;49.128;8.520;2024-02-21T00:44:18;8.65;;;3.45;;
28427;SDS011;15662;49.128;8.520;2024-02-21T00:46:45;8.30;;;3.67;;
28427;SDS011;15662;49.128;8.520;2024-02-21T00:49:13;11.52;;;3.85;;
28427;SDS011;15662;49.128;8.520;2024-02-21T00:51:40;9.05;;;3.45;;
28427;SDS011;15662;49.128;8.520;2024-02-21T00:54:07;7.30;;;3.47;;
28427;SDS011;15662;49.128;8.520;2024-02-21T00:56:35;11.85;;;3.72;;
28427;SDS011;15662;49.128;8.520;2024-02-21T00:59:02;8.57;;;3.30;;
28427;SDS011;15662;49.128;8.520;2024-02-21T01:01:29;11.02;;;3.40;;
28427;SDS011;15662;49.128;8.520;2024-02-21T01:03:57;13.00;;;3.60;;
28427;SDS011;15662;49.128;8.520;2024-02-21T01:06:24;8.63;;;3.42;;
28427;SDS011;15662;49.128;8.520;2024-02-21T01:08:51;9.32;;;3.35;;
28427;SDS011;15662;49.128;8.520;2024-02-21T01:11:19;10.38;;;3.35;;
28427;SDS011;15662;49.128;8.520;2024-02-21T01:13:46;9.82;;;3.25;;
28427;SDS011;15662;49.128;8.520;2024-02-21T01:16:13;10.48;;;3.25;;
28427;SDS011;15662;49.128;8.520;2024-02-21T01:18:41;8.50;;;3.30;;
28427;SDS011;15662;49.128;8.520;2024-02-21T01:21:08;7.55;;;2.80;;
28427;SDS011;15662;49.128;8.520;2024-02-21T01:23:36;9.00;;;3.33;;
28427;SDS011;15662;49.128;8.520;2024-02-21T01:26:04;9.65;;;3.17;;
28427;SDS011;15662;49.128;8.520;2024-02-21T01:28:31;9.70;;;3.20;;
28427;SDS011;15662;49.128;8.520;2024-02-21T01:30:59;6.95;;;2.90;;
28427;SDS011;15662;49.128;8.520;2024-02-21T01:33:26;8.73;;;3.13;;
28427;SDS011;15662;49.128;8.520;2024-02-21T01:35:53;9.65;;;3.10;;
28427;SDS011;15662;49.128;8.520;2024-02-21T01:38:20;9.90;;;3.50;;
28427;SDS011;15662;49.128;8.520;2024-02-21T01:40:48;7.95;;;3.28;;
28427;SDS011;15662;49.128;8.520;2024-02-21T01:43:16;8.98;;;3.17;;
28427;SDS011;15662;49.128;8.520;2024-02-21T01:45:47;8.98;;;3.13;;
28427;SDS011;15662;49.128;8.520;2024-02-21T01:48:17;12.57;;;3.42;;
28427;SDS011;15662;49.128;8.520;2024-02-21T01:50:45;7.90;;;2.75;;
28427;SDS011;15662;49.128;8.520;2024-02-21T01:53:14;8.73;;;3.05;;
28427;SDS011;15662;49.128;8.520;2024-02-21T01:55:49;9.38;;;2.97;;
28427;SDS011;15662;49.128;8.520;2024-02-21T01:58:16;8.50;;;3.13;;
28427;SDS011;15662;49.128;8.520;2024-02-21T02:00:45;7.28;;;2.50;;
28427;SDS011;15662;49.128;8.520;2024-02-21T02:03:14;8.23;;;2.70;;
28427;SDS011;15662;49.128;8.520;2024-02-21T02:05:48;13.15;;;3.03;;
28427;SDS011;15662;49.128;8.520;2024-02-21T02:08:16;7.20;;;2.40;;
28427;SDS011;15662;49.128;8.520;2024-02-21T02:10:45;7.03;;;2.90;;
28427;SDS011;15662;49.128;8.520;2024-02-21T02:13:13;8.57;;;3.20;;
28427;SDS011;15662;49.128;8.520;2024-02-21T02:15:44;8.65;;;2.72;;
28427;SDS011;15662;49.128;8.520;2024-02-21T02:18:14;6.70;;;2.47;;
28427;SDS011;15662;49.128;8.520;2024-02-21T02:20:43;7.07;;;2.80;;
28427;SDS011;15662;49.128;8.520;2024-02-21T02:25:50;7.88;;;2.55;;
28427;SDS011;15662;49.128;8.520;2024-02-21T02:28:21;7.88;;;2.80;;
28427;SDS011;15662;49.128;8.520;2024-02-21T02:30:49;6.57;;;2.80;;
28427;SDS011;15662;49.128;8.520;2024-02-21T02:33:16;7.72;;;2.45;;
28427;SDS011;15662;49.128;8.520;2024-02-21T02:35:44;7.25;;;2.70;;
28427;SDS011;15662;49.128;8.520;2024-02-21T02:38:12;6.68;;;2.60;;
28427;SDS011;15662;49.128;8.520;2024-02-21T02:40:40;9.90;;;3.30;;
28427;SDS011;15662;49.128;8.520;2024-02-21T02:43:08;5.80;;;2.63;;
28427;SDS011;15662;49.128;8.520;2024-02-21T02:45:36;6.50;;;2.47;;
28427;SDS011;15662;49.128;8.520;2024-02-21T02:48:03;5.88;;;2.30;;
28427;SDS011;15662;49.128;8.520;2024-02-21T02:50:31;5.85;;;2.55;;
28427;SDS011;15662;49.128;8.520;2024-02-21T02:52:58;5.57;;;2.65;;
28427;SDS011;15662;49.128;8.520;2024-02-21T02:55:26;6.38;;;2.53;;
28427;SDS011;15662;49.128;8.520;2024-02-21T02:57:54;4.95;;;2.70;;
28427;SDS011;15662;49.128;8.520;2024-02-21T03:00:22;5.07;;;2.30;;
28427;SDS011;15662;49.128;8.520;2024-02-21T03:02:50;5.70;;;2.22;;
28427;SDS011;15662;49.128;8.520;2024-02-21T03:05:21;7.05;;;2.60;;
28427;SDS011;15662;49.128;8.520;2024-02-21T03:07:49;6.85;;;2.47;;
28427;SDS011;15662;49.128;8.520;2024-02-21T03:10:16;5.97;;;2.42;;
28427;SDS011;15662;49.128;8.520;2024-02-21T03:12:45;7.43;;;2.78;;
28427;SDS011;15662;49.128;8.520;2024-02-21T03:15:13;8.90;;;2.67;;
28427;SDS011;15662;49.128;8.520;2024-02-21T03:17:41;7.20;;;2.88;;
28427;SDS011;15662;49.128;8.520;2024-02-21T03:20:08;7.38;;;2.70;;
28427;SDS011;15662;49.128;8.520;2024-02-21T03:22:39;8.15;;;2.53;;
28427;SDS011;15662;49.128;8.520;2024-02-21T03:25:08;5.90;;;2.47;;
28427;SDS011;15662;49.128;8.520;2024-02-21T03:27:37;8.95;;;2.50;;
28427;SDS011;15662;49.128;8.520;2024-02-21T03:30:05;8.55;;;2.92;;
28427;SDS011;15662;49.128;8.520;2024-02-21T03:32:33;5.05;;;2.67;;
28427;SDS011;15662;49.128;8.520;2024-02-21T03:35:00;6.72;;;2.47;;
28427;SDS011;15662;49.128;8.520;2024-02-21T03:37:28;5.72;;;2.50;;
28427;SDS011;15662;49.128;8.520;2024-02-21T03:39:55;6.10;;;2.60;;
28427;SDS011;15662;49.128;8.520;2024-02-21T03:42:22;8.60;;;2.90;;
28427;SDS011;15662;49.128;8.520;2024-02-21T03:44:49;7.80;;;3.10;;
28427;SDS011;15662;49.128;8.520;2024-02-21T03:47:17;8.23;;;2.67;;
28427;SDS011;15662;49.128;8.520;2024-02-21T03:49:44;8.35;;;2.85;;
28427;SDS011;15662;49.128;8.520;2024-02-21T03:52:11;5.05;;;2.50;;
28427;SDS011;15662;49.128;8.520;2024-02-21T03:54:38;9.07;;;2.80;;
28427;SDS011;15662;49.128;8.520;2024-02-21T03:57:05;6.85;;;2.75;;
28427;SDS011;15662;49.128;8.520;2024-02-21T03:59:33;4.60;;;2.53;;
28427;SDS011;15662;49.128;8.520;2024-02-21T04:02:00;6.53;;;2.60;;
28427;SDS011;15662;49.128;8.520;2024-02-21T04:04:27;5.95;;;2.35;;
28427;SDS011;15662;49.128;8.520;2024-02-21T04:06:54;5.40;;;2.38;;
28427;SDS011;15662;49.128;8.520;2024-02-21T04:09:22;6.65;;;2.97;;
28427;SDS011;15662;49.128;8.520;2024-02-21T04:11:49;6.95;;;2.30;;
28427;SDS011;15662;49.128;8.520;2024-02-21T04:14:16;5.03;;;2.28;;
28427;SDS011;15662;49.128;8.520;2024-02-21T04:16:43;8.07;;;2.30;;
28427;SDS011;15662;49.128;8.520;2024-02-21T04:19:10;6.95;;;2.58;;
28427;SDS011;15662;49.128;8.520;2024-02-21T04:21:38;6.68;;;2.60;;
28427;SDS011;15662;49.128;8.520;2024-02-21T04:24:05;6.00;;;2.28;;
28427;SDS011;15662;49.128;8.520;2024-02-21T04:26:33;8.75;;;2.90;;
28427;SDS011;15662;49.128;8.520;2024-02-21T04:29:01;7.22;;;2.80;;
28427;SDS011;15662;49.128;8.520;2024-02-21T04:31:28;7.75;;;2.90;;
28427;SDS011;15662;49.128;8.520;2024-02-21T04:33:58;6.03;;;2.58;;
28427;SDS011;15662;49.128;8.520;2024-02-21T04:36:25;6.10;;;2.58;;
28427;SDS011;15662;49.128;8.520;2024-02-21T04:38:52;4.70;;;2.55;;
28427;SDS011;15662;49.128;8.520;2024-02-21T04:41:20;7.40;;;2.78;;
28427;SDS011;15662;49.128;8.520;2024-02-21T04:43:47;6.57;;;2.53;;
28427;SDS011;15662;49.128;8.520;2024-02-21T04:46:14;7.03;;;2.15;;
28427;SDS011;15662;49.128;8.520;2024-02-21T04:48:45;9.93;;;2.85;;
28427;SDS011;15662;49.128;8.520;2024-02-21T04:51:12;7.20;;;2.75;;
28427;SDS011;15662;49.128;8.520;2024-02-21T04:53:40;12.60;;;6.15;;
28427;SDS011;15662;49.128;8.520;2024-02-21T04:56:07;18.95;;;7.45;;
28427;SDS011;15662;49.128;8.520;2024-02-21T04:58:37;27.50;;;11.55;;
28427;SDS011;15662;49.128;8.520;2024-02-21T05:01:06;21.83;;;10.02;;
28427;SDS011;15662;49.128;8.520;2024-02-21T05:03:34;14.95;;;7.68;;
28427;SDS011;15662;49.128;8.520;2024-02-21T05:06:02;12.20;;;5.18;;
28427;SDS011;15662;49.128;8.520;2024-02-21T05:08:29;8.65;;;3.72;;
28427;SDS011;15662;49.128;8.520;2024-02-21T05:10:56;6.47;;;2.90;;
28427;SDS011;15662;49.128;8.520;2024-02-21T05:13:24;7.40;;;3.00;;
28427;SDS011;15662;49.128;8.520;2024-02-21T05:15:52;8.50;;;2.80;;
28427;SDS011;15662;49.128;8.520;2024-02-21T05:18:19;4.57;;;2.53;;
28427;SDS011;15662;49.128;8.520;2024-02-21T05:20:47;6.55;;;2.90;;
28427;SDS011;15662;49.128;8.520;2024-02-21T05:23:14;9.05;;;2.88;;
28427;SDS011;15662;49.128;8.520;2024-02-21T05:25:41;7.05;;;2.42;;
28427;SDS011;15662;49.128;8.520;2024-02-21T05:28:08;6.72;;;2.30;;
28427;SDS011;15662;49.128;8.520;2024-02-21T05:30:36;8.75;;;2.47;;
28427;SDS011;15662;49.128;8.520;2024-02-21T05:33:03;6.43;;;2.50;;
28427;SDS011;15662;49.128;8.520;2024-02-21T05:35:32;6.03;;;2.50;;
28427;SDS011;15662;49.128;8.520;2024-02-21T05:38:00;5.57;;;2.70;;
28427;SDS011;15662;49.128;8.520;2024-02-21T05:40:28;9.05;;;2.97;;
28427;SDS011;15662;49.128;8.520;2024-02-21T05:42:55;10.77;;;3.25;;
28427;SDS011;15662;49.128;8.520;2024-02-21T05:45:22;7.82;;;3.40;;
28427;SDS011;15662;49.128;8.520;2024-02-21T05:47:50;6.47;;;2.90;;
28427;SDS011;15662;49.128;8.520;2024-02-21T05:50:17;7.88;;;3.03;;
28427;SDS011;15662;49.128;8.520;2024-02-21T05:52:44;5.03;;;2.40;;
28427;SDS011;15662;49.128;8.520;2024-02-21T05:55:12;9.60;;;3.10;;
28427;SDS011;15662;49.128;8.520;2024-02-21T05:57:39;5.63;;;2.90;;
28427;SDS011;15662;49.128;8.520;2024-02-21T06:00:06;7.13;;;3.20;;
28427;SDS011;15662;49.128;8.520;2024-02-21T06:02:43;8.63;;;2.92;;
28427;SDS011;15662;49.128;8.520;2024-02-21T06:05:10;7.40;;;3.15;;
28427;SDS011;15662;49.128;8.520;2024-02-21T06:07:38;9.45;;;3.13;;
28427;SDS011;15662;49.128;8.520;2024-02-21T06:10:06;7.75;;;2.70;;
28427;SDS011;15662;49.128;8.520;2024-02-21T06:12:34;8.85;;;2.80;;
28427;SDS011;15662;49.128;8.520;2024-02-21T06:15:01;9.15;;;3.22;;
28427;SDS011;15662;49.128;8.520;2024-02-21T06:17:29;7.65;;;3.15;;
28427;SDS011;15662;49.128;8.520;2024-02-21T06:19:56;10.30;;;3.33;;
28427;SDS011;15662;49.128;8.520;2024-02-21T06:22:23;8.85;;;3.05;;
28427;SDS011;15662;49.128;8.520;2024-02-21T06:24:50;5.22;;;2.95;;
28427;SDS011;15662;49.128;8.520;2024-02-21T06:27:19;5.90;;;2.78;;
28427;SDS011;15662;49.128;8.520;2024-02-21T06:29:46;9.80;;;3.30;;
28427;SDS011;15662;49.128;8.520;2024-02-21T06:32:14;8.93;;;3.30;;
28427;SDS011;15662;49.128;8.520;2024-02-21T06:34:41;7.47;;;3.22;;
28427;SDS011;15662;49.128;8.520;2024-02-21T06:37:08;6.03;;;3.00;;
28427;SDS011;15662;49.128;8.520;2024-02-21T06:39:35;8.85;;;3.20;;
28427;SDS011;15662;49.128;8.520;2024-02-21T06:42:04;6.95;;;3.00;;
28427;SDS011;15662;49.128;8.520;2024-02-21T06:44:31;12.65;;;3.50;;
28427;SDS011;15662;49.128;8.520;2024-02-21T06:47:02;9.65;;;3.20;;
28427;SDS011;15662;49.128;8.520;2024-02-21T06:49:30;6.35;;;3.08;;
28427;SDS011;15662;49.128;8.520;2024-02-21T06:51:57;4.82;;;2.85;;
28427;SDS011;15662;49.128;8.520;2024-02-21T06:54:24;7.05;;;3.00;;
28427;SDS011;15662;49.128;8.520;2024-02-21T06:56:52;7.38;;;3.15;;
28427;SDS011;15662;49.128;8.520;2024-02-21T06:59:19;7.00;;;3.17;;
28427;SDS011;15662;49.128;8.520;2024-02-21T07:01:49;9.95;;;3.17;;
28427;SDS011;15662;49.128;8.520;2024-02-21T07:04:20;6.50;;;2.95;;
28427;SDS011;15662;49.128;8.520;2024-02-21T07:06:47;6.90;;;3.00;;
28427;SDS011;15662;49.128;8.520;2024-02-21T07:09:15;7.72;;;3.00;;
28427;SDS011;15662;49.128;8.520;2024-02-21T07:11:42;7.18;;;3.00;;
28427;SDS011;15662;49.128;8.520;2024-02-21T07:14:10;5.45;;;2.70;;
28427;SDS011;15662;49.128;8.520;2024-02-21T07:16:37;7.20;;;2.90;;
28427;SDS011;15662;49.128;8.520;2024-02-21T07:19:04;8.82;;;2.88;;
28427;SDS011;15662;49.128;8.520;2024-02-21T07:21:32;8.10;;;2.80;;
28427;SDS011;15662;49.128;8.520;2024-02-21T07:23:59;7.97;;;2.75;;
28427;SDS011;15662;49.128;8.520;2024-02-21T07:26:26;6.53;;;2.80;;
28427;SDS011;15662;49.128;8.520;2024-02-21T07:28:53;6.95;;;2.90;;
28427;SDS011;15662;49.128;8.520;2024-02-21T07:31:21;5.38;;;2.90;;
28427;SDS011;15662;49.128;8.520;2024-02-21T07:33:48;5.85;;;3.05;;
28427;SDS011;15662;49.128;8.520;2024-02-21T07:36:15;9.75;;;3.45;;
28427;SDS011;15662;49.128;8.520;2024-02-21T07:38:50;8.43;;;3.40;;
28427;SDS011;15662;49.128;8.520;2024-02-21T07:41:18;5.63;;;2.67;;
28427;SDS011;15662;49.128;8.520;2024-02-21T07:43:45;6.03;;;3.05;;
28427;SDS011;15662;49.128;8.520;2024-02-21T07:46:12;10.20;;;3.55;;
28427;SDS011;15662;49.128;8.520;2024-02-21T07:48:39;8.55;;;3.22;;
28427;SDS011;15662;49.128;8.520;2024-02-21T07:51:07;8.30;;;4.00;;
28427;SDS011;15662;49.128;8.520;2024-02-21T07:53:34;7.30;;;2.97;;
28427;SDS011;15662;49.128;8.520;2024-02-21T07:56:01;3.88;;;2.75;;
28427;SDS011;15662;49.128;8.520;2024-02-21T07:58:28;10.63;;;3.20;;
28427;SDS011;15662;49.128;8.520;2024-02-21T08:00:55;6.90;;;2.95;;
28427;SDS011;15662;49.128;8.520;2024-02-21T08:03:23;8.93;;;3.10;;
28427;SDS011;15662;49.128;8.520;2024-02-21T08:05:52;9.10;;;3.15;;
28427;SDS011;15662;49.128;8.520;2024-02-21T08:08:19;5.60;;;2.85;;
28427;SDS011;15662;49.128;8.520;2024-02-21T08:10:48;8.95;;;3.15;;
28427;SDS011;15662;49.128;8.520;2024-02-21T08:13:17;7.03;;;2.90;;
28427;SDS011;15662;49.128;8.520;2024-02-21T08:15:44;7.55;;;3.30;;
28427;SDS011;15662;49.128;8.520;2024-02-21T08:18:11;5.65;;;3.13;;
28427;SDS011;15662;49.128;8.520;2024-02-21T08:20:39;9.45;;;3.38;;
28427;SDS011;15662;49.128;8.520;2024-02-21T08:23:06;6.72;;;3.00;;
28427;SDS011;15662;49.128;8.520;2024-02-21T08:25:33;7.10;;;3.10;;
28427;SDS011;15662;49.128;8.520;2024-02-21T08:28:00;4.57;;;2.78;;
28427;SDS011;15662;49.128;8.520;2024-02-21T08:30:30;7.63;;;3.38;;
28427;SDS011;15662;49.128;8.520;2024-02-21T08:32:57;7.05;;;3.13;;
28427;SDS011;15662;49.128;8.520;2024-02-21T08:35:27;8.25;;;3.00;;
28427;SDS011;15662;49.128;8.520;2024-02-21T08:37:54;7.70;;;3.30;;
28427;SDS011;15662;49.128;8.520;2024-02-21T08:40:22;7.38;;;3.08;;
28427;SDS011;15662;49.128;8.520;2024-02-21T08:42:49;7.05;;;2.80;;
28427;SDS011;15662;49.128;8.520;2024-02-21T08:45:16;7.88;;;3.05;;
28427;SDS011;15662;49.128;8.520;2024-02-21T08:47:44;6.18;;;3.05;;
28427;SDS011;15662;49.128;8.520;2024-02-21T08:50:14;6.95;;;2.80;;
28427;SDS011;15662;49.128;8.520;2024-02-21T08:52:53;9.55;;;3.17;;
28427;SDS011;15662;49.128;8.520;2024-02-21T08:55:21;6.65;;;3.00;;
28427;SDS011;15662;49.128;8.520;2024-02-21T08:57:49;4.68;;;2.63;;
28427;SDS011;15662;49.128;8.520;2024-02-21T09:00:16;8.52;;;2.72;;
28427;SDS011;15662;49.128;8.520;2024-02-21T09:02:44;7.20;;;3.03;;
28427;SDS011;15662;49.128;8.520;2024-02-21T09:05:11;6.00;;;3.00;;
28427;SDS011;15662;49.128;8.520;2024-02-21T09:07:39;6.85;;;2.75;;
28427;SDS011;15662;49.128;8.520;2024-02-21T09:10:06;6.28;;;2.88;;
28427;SDS011;15662;49.128;8.520;2024-02-21T09:12:34;8.85;;;3.08;;
28427;SDS011;15662;49.128;8.520;2024-02-21T09:15:01;5.75;;;2.97;;
28427;SDS011;15662;49.128;8.520;2024-02-21T09:17:30;8.55;;;3.35;;
28427;SDS011;15662;49.128;8.520;2024-02-21T09:19:57;6.60;;;2.90;;
28427;SDS011;15662;49.128;8.520;2024-02-21T09:22:29;7.25;;;3.25;;
28427;SDS011;15662;49.128;8.520;2024-02-21T09:24:58;6.18;;;3.08;;
28427;SDS011;15662;49.128;8.520;2024-02-21T09:27:25;6.60;;;2.92;;
28427;SDS011;15662;49.128;8.520;2024-02-21T09:29:52;7.35;;;2.90;;
28427;SDS011;15662;49.128;8.520;2024-02-21T09:32:20;4.72;;;2.40;;
28427;SDS011;15662;49.128;8.520;2024-02-21T09:34:47;6.90;;;2.58;;
28427;SDS011;15662;49.128;8.520;2024-02-21T09:37:14;4.97;;;2.33;;
28427;SDS011;15662;49.128;8.520;2024-02-21T09:39:42;5.30;;;2.10;;
28427;SDS011;15662;49.128;8.520;2024-02-21T09:42:11;6.93;;;2.30;;
28427;SDS011;15662;49.128;8.520;2024-02-21T09:44:39;6.65;;;2.30;;
28427;SDS011;15662;49.128;8.520;2024-02-21T09:47:07;5.47;;;2.00;;
28427;SDS011;15662;49.128;8.520;2024-02-21T09:49:41;7.97;;;2.15;;
28427;SDS011;15662;49.128;8.520;2024-02-21T09:52:11;7.13;;;2.05;;
28427;SDS011;15662;49.128;8.520;2024-02-21T09:54:41;5.40;;;1.73;;
28427;SDS011;15662;49.128;8.520;2024-02-21T09:57:11;3.70;;;1.90;;
28427;SDS011;15662;49.128;8.520;2024-02-21T09:59:40;4.97;;;2.03;;
28427;SDS011;15662;49.128;8.520;2024-02-21T10:02:10;5.28;;;2.00;;
28427;SDS011;15662;49.128;8.520;2024-02-21T10:04:39;5.28;;;1.92;;
28427;SDS011;15662;49.128;8.520;2024-02-21T10:07:08;6.03;;;1.95;;
28427;SDS011;15662;49.128;8.520;2024-02-21T10:09:35;7.40;;;2.30;;
28427;SDS011;15662;49.128;8.520;2024-02-21T10:12:10;4.70;;;1.73;;
28427;SDS011;15662;49.128;8.520;2024-02-21T10:14:39;5.25;;;1.90;;
28427;SDS011;15662;49.128;8.520;2024-02-21T10:17:08;3.92;;;1.98;;
28427;SDS011;15662;49.128;8.520;2024-02-21T10:19:45;6.15;;;1.77;;
28427;SDS011;15662;49.128;8.520;2024-02-21T10:22:15;6.72;;;1.80;;
28427;SDS011;15662;49.128;8.520;2024-02-21T10:24:44;4.07;;;1.70;;
28427;SDS011;15662;49.128;8.520;2024-02-21T10:27:12;4.55;;;1.65;;
28427;SDS011;15662;49.128;8.520;2024-02-21T10:29:40;3.83;;;1.67;;
28427;SDS011;15662;49.128;8.520;2024-02-21T10:32:12;6.13;;;1.83;;
28427;SDS011;15662;49.128;8.520;2024-02-21T10:34:41;3.00;;;1.52;;
28427;SDS011;15662;49.128;8.520;2024-02-21T10:37:11;5.43;;;2.10;;
28427;SDS011;15662;49.128;8.520;2024-02-21T10:39:39;5.60;;;2.00;;
28427;SDS011;15662;49.128;8.520;2024-02-21T10:42:10;5.15;;;1.60;;
28427;SDS011;15662;49.128;8.520;2024-02-21T10:44:39;3.65;;;1.80;;
28427;SDS011;15662;49.128;8.520;2024-02-21T10:47:09;5.93;;;2.03;;
28427;SDS011;15662;49.128;8.520;2024-02-21T10:49:40;4.95;;;1.60;;
28427;SDS011;15662;49.128;8.520;2024-02-21T10:52:15;3.95;;;1.40;;
28427;SDS011;15662;49.128;8.520;2024-02-21T10:55:03;5.35;;;1.85;;
28427;SDS011;15662;49.128;8.520;2024-02-21T10:57:37;5.90;;;1.70;;
28427;SDS011;15662;49.128;8.520;2024-02-21T11:00:06;4.53;;;1.80;;
28427;SDS011;15662;49.128;8.520;2024-02-21T11:02:39;4.95;;;1.88;;
28427;SDS011;15662;49.128;8.520;2024-02-21T11:05:07;3.75;;;1.50;;
28427;SDS011;15662;49.128;8.520;2024-02-21T11:07:37;5.18;;;1.77;;
28427;SDS011;15662;49.128;8.520;2024-02-21T11:10:06;4.15;;;1.40;;
28427;SDS011;15662;49.128;8.520;2024-02-21T11:13:04;5.55;;;1.80;;
28427;SDS011;15662;49.128;8.520;2024-02-21T11:15:35;5.40;;;1.88;;
28427;SDS011;15662;49.128;8.520;2024-02-21T11:18:02;6.03;;;2.03;;
28427;SDS011;15662;49.128;8.520;2024-02-21T11:20:34;5.88;;;1.90;;
28427;SDS011;15662;49.128;8.520;2024-02-21T11:23:03;4.13;;;1.90;;
28427;SDS011;15662;49.128;8.520;2024-02-21T11:25:31;5.32;;;1.73;;
28427;SDS011;15662;49.128;8.520;2024-02-21T11:28:01;3.92;;;1.73;;
28427;SDS011;15662;49.128;8.520;2024-02-21T11:30:30;4.75;;;1.35;;
28427;SDS011;15662;49.128;8.520;2024-02-21T11:33:00;5.18;;;1.52;;
28427;SDS011;15662;49.128;8.520;2024-02-21T11:35:33;3.38;;;1.60;;
28427;SDS011;15662;49.128;8.520;2024-02-21T11:38:08;3.72;;;1.50;;
28427;SDS011;15662;49.128;8.520;2024-02-21T11:40:38;3.35;;;1.58;;
28427;SDS011;15662;49.128;8.520;2024-02-21T11:43:07;8.63;;;1.30;;
28427;SDS011;15662;49.128;8.520;2024-02-21T11:45:34;4.55;;;1.67;;
28427;SDS011;15662;49.128;8.520;2024-02-21T11:48:02;3.20;;;1.58;;
28427;SDS011;15662;49.128;8.520;2024-02-21T11:50:32;5.40;;;1.90;;
28427;SDS011;15662;49.128;8.520;2024-02-21T11:53:03;4.40;;;1.75;;
28427;SDS011;15662;49.128;8.520;2024-02-21T11:55:30;4.22;;;1.58;;
28427;SDS011;15662;49.128;8.520;2024-02-21T11:57:58;5.00;;;1.27;;
28427;SDS011;15662;49.128;8.520;2024-02-21T12:00:25;5.53;;;1.50;;
28427;SDS011;15662;49.128;8.520;2024-02-21T12:02:53;5.28;;;1.48;;
28427;SDS011;15662;49.128;8.520;2024-02-21T12:05:26;5.78;;;1.60;;
28427;SDS011;15662;49.128;8.520;2024-02-21T12:07:55;2.65;;;1.13;;
28427;SDS011;15662;49.128;8.520;2024-02-21T12:10:27;2.35;;;1.30;;
28427;SDS011;15662;49.128;8.520;2024-02-21T12:13:08;4.32;;;1.52;;
28427;SDS011;15662;49.128;8.520;2024-02-21T12:15:36;4.53;;;1.43;;
28427;SDS011;15662;49.128;8.520;2024-02-21T12:18:05;3.00;;;1.25;;
28427;SDS011;15662;49.128;8.520;2024-02-21T12:20:32;5.75;;;1.33;;
28427;SDS011;15662;49.128;8.520;2024-02-21T12:23:00;2.58;;;1.30;;
28427;SDS011;15662;49.128;8.520;2024-02-21T12:25:28;6.75;;;1.50;;
28427;SDS011;15662;49.128;8.520;2024-02-21T12:27:55;3.42;;;1.50;;
28427;SDS011;15662;49.128;8.520;2024-02-21T12:30:23;5.22;;;1.58;;
28427;SDS011;15662;49.128;8.520;2024-02-21T12:32:50;3.25;;;1.40;;
28427;SDS011;15662;49.128;8.520;2024-02-21T12:35:17;2.85;;;1.20;;
28427;SDS011;15662;49.128;8.520;2024-02-21T12:37:45;3.17;;;1.38;;
28427;SDS011;15662;49.128;8.520;2024-02-21T12:40:13;5.18;;;1.50;;
28427;SDS011;15662;49.128;8.520;2024-02-21T12:42:41;2.15;;;1.20;;
28427;SDS011;15662;49.128;8.520;2024-02-21T12:45:09;2.72;;;1.25;;
28427;SDS011;15662;49.128;8.520;2024-02-21T12:47:36;6.38;;;1.38;;
28427;SDS011;15662;49.128;8.520;2024-02-21T12:50:03;4.63;;;1.90;;
28427;SDS011;15662;49.128;8.520;2024-02-21T12:52:33;3.70;;;1.60;;
28427;SDS011;15662;49.128;8.520;2024-02-21T12:55:01;3.60;;;1.60;;
28427;SDS011;15662;49.128;8.520;2024-02-21T12:57:29;3.95;;;1.50;;
28427;SDS011;15662;49.128;8.520;2024-02-21T12:59:56;4.20;;;1.30;;
28427;SDS011;15662;49.128;8.520;2024-02-21T13:02:24;2.75;;;1.20;;
28427;SDS011;15662;49.128;8.520;2024-02-21T13:04:51;4.35;;;1.40;;
28427;SDS011;15662;49.128;8.520;2024-02-21T13:07:18;3.38;;;1.20;;
28427;SDS011;15662;49.128;8.520;2024-02-21T13:09:46;3.25;;;1.15;;
28427;SDS011;15662;49.128;8.520;2024-02-21T13:12:13;3.65;;;1.55;;
28427;SDS011;15662;49.128;8.520;2024-02-21T13:14:40;3.17;;;1.42;;
28427;SDS011;15662;49.128;8.520;2024-02-21T13:17:10;3.67;;;1.30;;
28427;SDS011;15662;49.128;8.520;2024-02-21T13:19:37;3.72;;;1.45;;
28427;SDS011;15662;49.128;8.520;2024-02-21T13:22:05;4.28;;;1.58;;
28427;SDS011;15662;49.128;8.520;2024-02-21T13:24:33;4.50;;;1.52;;
28427;SDS011;15662;49.128;8.520;2024-02-21T13:27:00;3.70;;;1.80;;
28427;SDS011;15662;49.128;8.520;2024-02-21T13:29:29;5.18;;;2.17;;
28427;SDS011;15662;49.128;8.520;2024-02-21T13:31:57;4.88;;;1.92;;
28427;SDS011;15662;49.128;8.520;2024-02-21T13:34:25;4.57;;;1.63;;
28427;SDS011;15662;49.128;8.520;2024-02-21T13:36:52;5.30;;;1.55;;
28427;SDS011;15662;49.128;8.520;2024-02-21T13:39:20;2.85;;;1.60;;
28427;SDS011;15662;49.128;8.520;2024-02-21T13:41:47;2.65;;;1.38;;
28427;SDS011;15662;49.128;8.520;2024-02-21T13:44:14;3.13;;;1.52;;
28427;SDS011;15662;49.128;8.520;2024-02-21T13:46:42;3.80;;;1.20;;
28427;SDS011;15662;49.128;8.520;2024-02-21T13:49:09;4.25;;;1.30;;
28427;SDS011;15662;49.128;8.520;2024-02-21T13:51:36;4.05;;;1.42;;
28427;SDS011;15662;49.128;8.520;2024-02-21T13:54:04;4.60;;;1.60;;
28427;SDS011;15662;49.128;8.520;2024-02-21T13:56:31;3.22;;;1.40;;
28427;SDS011;15662;49.128;8.520;2024-02-21T13:58:59;3.53;;;1.35;;
28427;SDS011;15662;49.128;8.520;2024-02-21T14:01:26;5.22;;;3.30;;
28427;SDS011;15662;49.128;8.520;2024-02-21T14:03:59;5.15;;;2.88;;
28427;SDS011;15662;49.128;8.520;2024-02-21T14:06:26;3.67;;;2.03;;
28427;SDS011;15662;49.128;8.520;2024-02-21T14:08:54;3.67;;;1.50;;
28427;SDS011;15662;49.128;8.520;2024-02-21T14:11:21;3.80;;;1.30;;
28427;SDS011;15662;49.128;8.520;2024-02-21T14:13:49;5.63;;;1.52;;
28427;SDS011;15662;49.128;8.520;2024-02-21T14:16:17;4.30;;;1.90;;
28427;SDS011;15662;49.128;8.520;2024-02-21T14:18:44;6.22;;;2.05;;
28427;SDS011;15662;49.128;8.520;2024-02-21T14:21:12;4.40;;;1.73;;
28427;SDS011;15662;49.128;8.520;2024-02-21T14:23:39;5.40;;;2.28;;
28427;SDS011;15662;49.128;8.520;2024-02-21T14:26:13;3.47;;;2.22;;
28427;SDS011;15662;49.128;8.520;2024-02-21T14:28:40;4.82;;;2.53;;
28427;SDS011;15662;49.128;8.520;2024-02-21T14:31:08;4.22;;;1.80;;
28427;SDS011;15662;49.128;8.520;2024-02-21T14:33:35;4.40;;;1.50;;
28427;SDS011;15662;49.128;8.520;2024-02-21T14:36:03;4.80;;;1.40;;
28427;SDS011;15662;49.128;8.520;2024-02-21T14:38:31;4.00;;;1.73;;
28427;SDS011;15662;49.128;8.520;2024-02-21T14:40:58;3.38;;;1.60;;
28427;SDS011;15662;49.128;8.520;2024-02-21T14:43:25;2.92;;;1.33;;
28427;SDS011;15662;49.128;8.520;2024-02-21T14:45:53;5.55;;;1.60;;
28427;SDS011;15662;49.128;8.520;2024-02-21T14:48:20;3.22;;;1.40;;
28427;SDS011;15662;49.128;8.520;2024-02-21T14:50:48;4.25;;;1.88;;
28427;SDS011;15662;49.128;8.520;2024-02-21T14:53:16;4.53;;;1.50;;